sensor_id;sensor_type;location;lat;lon;timestamp;P1;durP1;ratioP1;P2;durP2;ratioP2
41761;SDS011;27441;50.860;0.258;2023-04-19T00:01:06;1.00;;;1.00;;
41761;SDS011;27441;50.860;0.258;2023-04-19T00:03:33;0.22;;;0.22;;
41761;SDS011;27441;50.860;0.258;2023-04-19T00:05:59;10.40;;;9.55;;
41761;SDS011;27441;50.860;0.258;2023-04-19T00:08:25;3.22;;;3.03;;
41761;SDS011;27441;50.860;0.258;2023-04-19T00:10:51;10.25;;;9.43;;
41761;SDS011;27441;50.860;0.258;2023-04-19T00:13:17;0.45;;;0.45;;
41761;SDS011;27441;50.860;0.258;2023-04-19T00:15:43;8.70;;;7.90;;
41761;SDS011;27441;50.860;0.258;2023-04-19T00:18:09;0.77;;;0.77;;
41761;SDS011;27441;50.860;0.258;2023-04-19T00:20:36;1.35;;;1.30;;
41761;SDS011;27441;50.860;0.258;2023-04-19T00:23:03;7.45;;;6.95;;
41761;SDS011;27441;50.860;0.258;2023-04-19T00:25:29;0.60;;;0.60;;
41761;SDS011;27441;50.860;0.258;2023-04-19T00:27:56;0.20;;;0.20;;
41761;SDS011;27441;50.860;0.258;2023-04-19T00:30:22;8.35;;;7.70;;
41761;SDS011;27441;50.860;0.258;2023-04-19T00:32:48;0.00;;;0.00;;
41761;SDS011;27441;50.860;0.258;2023-04-19T00:35:14;0.20;;;0.20;;
41761;SDS011;27441;50.860;0.258;2023-04-19T00:37:40;0.15;;;0.15;;
41761;SDS011;27441;50.860;0.258;2023-04-19T00:40:06;0.63;;;0.63;;
41761;SDS011;27441;50.860;0.258;2023-04-19T00:42:32;0.00;;;0.00;;
41761;SDS011;27441;50.860;0.258;2023-04-19T00:52:16;0.15;;;0.15;;
41761;SDS011;27441;50.860;0.258;2023-04-19T00:54:43;5.90;;;5.50;;
41761;SDS011;27441;50.860;0.258;2023-04-19T01:02:01;0.00;;;0.00;;
41761;SDS011;27441;50.860;0.258;2023-04-19T01:04:27;0.20;;;0.20;;
41761;SDS011;27441;50.860;0.258;2023-04-19T01:06:53;0.03;;;0.03;;
41761;SDS011;27441;50.860;0.258;2023-04-19T01:11:46;0.00;;;0.00;;
41761;SDS011;27441;50.860;0.258;2023-04-19T01:14:12;0.00;;;0.00;;
41761;SDS011;27441;50.860;0.258;2023-04-19T01:16:38;1.70;;;1.60;;
41761;SDS011;27441;50.860;0.258;2023-04-19T01:19:04;1.00;;;1.00;;
41761;SDS011;27441;50.860;0.258;2023-04-19T01:23:56;0.25;;;0.25;;
41761;SDS011;27441;50.860;0.258;2023-04-19T01:31:14;16.83;;;15.35;;
41761;SDS011;27441;50.860;0.258;2023-04-19T01:33:40;0.43;;;0.35;;
41761;SDS011;27441;50.860;0.258;2023-04-19T01:36:06;0.00;;;0.00;;
41761;SDS011;27441;50.860;0.258;2023-04-19T01:38:32;2.37;;;2.20;;
41761;SDS011;27441;50.860;0.258;2023-04-19T01:40:59;1.10;;;1.10;;
41761;SDS011;27441;50.860;0.258;2023-04-19T01:43:25;0.85;;;0.85;;
41761;SDS011;27441;50.860;0.258;2023-04-19T01:45:51;0.73;;;0.73;;
41761;SDS011;27441;50.860;0.258;2023-04-19T02:34:31;26.63;;;24.40;;
41761;SDS011;27441;50.860;0.258;2023-04-19T02:36:57;33.35;;;30.55;;
41761;SDS011;27441;50.860;0.258;2023-04-19T02:39:23;51.03;;;46.45;;
41761;SDS011;27441;50.860;0.258;2023-04-19T02:41:49;22.63;;;20.52;;
41761;SDS011;27441;50.860;0.258;2023-04-19T02:44:15;40.72;;;37.10;;
41761;SDS011;27441;50.860;0.258;2023-04-19T02:46:51;13.25;;;12.20;;
41761;SDS011;27441;50.860;0.258;2023-04-19T02:49:17;1.75;;;1.65;;
41761;SDS011;27441;50.860;0.258;2023-04-19T02:51:43;0.70;;;0.70;;
41761;SDS011;27441;50.860;0.258;2023-04-19T02:54:10;0.00;;;0.00;;
41761;SDS011;27441;50.860;0.258;2023-04-19T02:56:36;0.00;;;0.00;;
41761;SDS011;27441;50.860;0.258;2023-04-19T02:59:02;0.00;;;0.00;;
41761;SDS011;27441;50.860;0.258;2023-04-19T03:01:29;0.00;;;0.00;;
41761;SDS011;27441;50.860;0.258;2023-04-19T03:03:55;0.10;;;0.10;;
41761;SDS011;27441;50.860;0.258;2023-04-19T03:06:21;0.55;;;0.55;;
41761;SDS011;27441;50.860;0.258;2023-04-19T03:08:47;0.20;;;0.20;;
41761;SDS011;27441;50.860;0.258;2023-04-19T03:11:16;0.90;;;0.90;;
41761;SDS011;27441;50.860;0.258;2023-04-19T03:13:43;0.10;;;0.10;;
41761;SDS011;27441;50.860;0.258;2023-04-19T03:16:09;0.20;;;0.20;;
41761;SDS011;27441;50.860;0.258;2023-04-19T03:18:35;0.00;;;0.00;;
41761;SDS011;27441;50.860;0.258;2023-04-19T03:21:02;0.00;;;0.00;;
41761;SDS011;27441;50.860;0.258;2023-04-19T03:23:28;0.10;;;0.10;;
41761;SDS011;27441;50.860;0.258;2023-04-19T03:25:54;1.35;;;1.25;;
41761;SDS011;27441;50.860;0.258;2023-04-19T03:28:21;0.03;;;0.03;;
41761;SDS011;27441;50.860;0.258;2023-04-19T03:30:47;0.00;;;0.00;;
41761;SDS011;27441;50.860;0.258;2023-04-19T03:33:13;0.00;;;0.00;;
41761;SDS011;27441;50.860;0.258;2023-04-19T03:35:39;0.00;;;0.00;;
41761;SDS011;27441;50.860;0.258;2023-04-19T03:38:05;4.17;;;3.87;;
41761;SDS011;27441;50.860;0.258;2023-04-19T03:40:31;0.00;;;0.00;;
41761;SDS011;27441;50.860;0.258;2023-04-19T03:42:58;0.00;;;0.00;;
41761;SDS011;27441;50.860;0.258;2023-04-19T03:45:24;0.00;;;0.00;;
41761;SDS011;27441;50.860;0.258;2023-04-19T03:47:51;0.00;;;0.00;;
41761;SDS011;27441;50.860;0.258;2023-04-19T03:50:17;0.08;;;0.08;;
41761;SDS011;27441;50.860;0.258;2023-04-19T03:52:43;0.00;;;0.00;;
41761;SDS011;27441;50.860;0.258;2023-04-19T03:55:09;0.35;;;0.35;;
41761;SDS011;27441;50.860;0.258;2023-04-19T03:57:36;0.00;;;0.00;;
41761;SDS011;27441;50.860;0.258;2023-04-19T04:00:03;0.00;;;0.00;;
41761;SDS011;27441;50.860;0.258;2023-04-19T04:02:31;0.00;;;0.00;;
41761;SDS011;27441;50.860;0.258;2023-04-19T04:04:57;0.00;;;0.00;;
41761;SDS011;27441;50.860;0.258;2023-04-19T04:07:23;0.00;;;0.00;;
41761;SDS011;27441;50.860;0.258;2023-04-19T04:09:49;0.00;;;0.00;;
41761;SDS011;27441;50.860;0.258;2023-04-19T04:12:16;1.55;;;1.50;;
41761;SDS011;27441;50.860;0.258;2023-04-19T04:14:42;0.00;;;0.00;;
41761;SDS011;27441;50.860;0.258;2023-04-19T04:17:08;0.00;;;0.00;;
41761;SDS011;27441;50.860;0.258;2023-04-19T04:19:34;0.00;;;0.00;;
41761;SDS011;27441;50.860;0.258;2023-04-19T04:22:00;0.00;;;0.00;;
41761;SDS011;27441;50.860;0.258;2023-04-19T04:24:26;0.00;;;0.00;;
41761;SDS011;27441;50.860;0.258;2023-04-19T04:26:52;0.47;;;0.47;;
41761;SDS011;27441;50.860;0.258;2023-04-19T04:29:18;0.00;;;0.00;;
41761;SDS011;27441;50.860;0.258;2023-04-19T04:31:44;0.00;;;0.00;;
41761;SDS011;27441;50.860;0.258;2023-04-19T04:34:10;0.00;;;0.00;;
41761;SDS011;27441;50.860;0.258;2023-04-19T04:36:36;0.00;;;0.00;;
41761;SDS011;27441;50.860;0.258;2023-04-19T04:39:03;0.00;;;0.00;;
41761;SDS011;27441;50.860;0.258;2023-04-19T04:41:30;0.00;;;0.00;;
41761;SDS011;27441;50.860;0.258;2023-04-19T04:43:57;0.00;;;0.00;;
41761;SDS011;27441;50.860;0.258;2023-04-19T04:46:24;0.00;;;0.00;;
41761;SDS011;27441;50.860;0.258;2023-04-19T04:48:51;0.00;;;0.00;;
41761;SDS011;27441;50.860;0.258;2023-04-19T04:51:17;0.00;;;0.00;;
41761;SDS011;27441;50.860;0.258;2023-04-19T04:53:43;0.00;;;0.00;;
41761;SDS011;27441;50.860;0.258;2023-04-19T04:56:09;1.08;;;1.08;;
41761;SDS011;27441;50.860;0.258;2023-04-19T04:58:35;0.00;;;0.00;;
41761;SDS011;27441;50.860;0.258;2023-04-19T05:01:01;0.00;;;0.00;;
41761;SDS011;27441;50.860;0.258;2023-04-19T05:03:28;0.00;;;0.00;;
41761;SDS011;27441;50.860;0.258;2023-04-19T05:05:54;0.00;;;0.00;;
41761;SDS011;27441;50.860;0.258;2023-04-19T05:08:20;0.00;;;0.00;;
41761;SDS011;27441;50.860;0.258;2023-04-19T05:10:46;0.00;;;0.00;;
41761;SDS011;27441;50.860;0.258;2023-04-19T05:13:12;0.00;;;0.00;;
41761;SDS011;27441;50.860;0.258;2023-04-19T05:15:38;0.10;;;0.10;;
41761;SDS011;27441;50.860;0.258;2023-04-19T05:18:04;0.10;;;0.10;;
41761;SDS011;27441;50.860;0.258;2023-04-19T05:20:31;0.08;;;0.08;;
41761;SDS011;27441;50.860;0.258;2023-04-19T05:22:58;0.65;;;0.65;;
41761;SDS011;27441;50.860;0.258;2023-04-19T05:25:24;0.00;;;0.00;;
41761;SDS011;27441;50.860;0.258;2023-04-19T05:27:50;0.20;;;0.20;;
41761;SDS011;27441;50.860;0.258;2023-04-19T05:30:16;0.88;;;0.77;;
41761;SDS011;27441;50.860;0.258;2023-04-19T05:32:42;0.10;;;0.10;;
41761;SDS011;27441;50.860;0.258;2023-04-19T05:35:09;2.50;;;1.13;;
41761;SDS011;27441;50.860;0.258;2023-04-19T05:37:35;0.00;;;0.00;;
41761;SDS011;27441;50.860;0.258;2023-04-19T05:40:02;0.38;;;0.38;;
41761;SDS011;27441;50.860;0.258;2023-04-19T05:42:33;0.00;;;0.00;;
41761;SDS011;27441;50.860;0.258;2023-04-19T05:45:00;0.10;;;0.10;;
41761;SDS011;27441;50.860;0.258;2023-04-19T05:47:26;0.20;;;0.20;;
41761;SDS011;27441;50.860;0.258;2023-04-19T05:49:52;0.00;;;0.00;;
41761;SDS011;27441;50.860;0.258;2023-04-19T05:52:18;1.70;;;0.90;;
41761;SDS011;27441;50.860;0.258;2023-04-19T05:54:45;0.20;;;0.20;;
41761;SDS011;27441;50.860;0.258;2023-04-19T05:57:11;0.30;;;0.30;;
41761;SDS011;27441;50.860;0.258;2023-04-19T05:59:37;1.90;;;0.95;;
41761;SDS011;27441;50.860;0.258;2023-04-19T06:02:03;0.00;;;0.00;;
41761;SDS011;27441;50.860;0.258;2023-04-19T06:04:29;0.00;;;0.00;;
41761;SDS011;27441;50.860;0.258;2023-04-19T06:06:55;0.00;;;0.00;;
41761;SDS011;27441;50.860;0.258;2023-04-19T06:09:21;0.20;;;0.20;;
41761;SDS011;27441;50.860;0.258;2023-04-19T06:11:48;0.40;;;0.30;;
41761;SDS011;27441;50.860;0.258;2023-04-19T06:14:14;0.20;;;0.20;;
41761;SDS011;27441;50.860;0.258;2023-04-19T06:16:40;0.00;;;0.00;;
41761;SDS011;27441;50.860;0.258;2023-04-19T06:19:07;0.00;;;0.00;;
41761;SDS011;27441;50.860;0.258;2023-04-19T06:21:33;0.00;;;0.00;;
41761;SDS011;27441;50.860;0.258;2023-04-19T06:23:59;0.05;;;0.05;;
41761;SDS011;27441;50.860;0.258;2023-04-19T06:26:26;0.30;;;0.30;;
41761;SDS011;27441;50.860;0.258;2023-04-19T06:28:52;0.10;;;0.10;;
41761;SDS011;27441;50.860;0.258;2023-04-19T06:31:18;1.35;;;1.25;;
41761;SDS011;27441;50.860;0.258;2023-04-19T06:33:44;0.50;;;0.50;;
41761;SDS011;27441;50.860;0.258;2023-04-19T06:36:10;0.35;;;0.35;;
41761;SDS011;27441;50.860;0.258;2023-04-19T06:38:36;0.80;;;0.80;;
41761;SDS011;27441;50.860;0.258;2023-04-19T06:41:03;3.90;;;3.70;;
41761;SDS011;27441;50.860;0.258;2023-04-19T06:43:29;1.85;;;1.75;;
41761;SDS011;27441;50.860;0.258;2023-04-19T06:46:01;0.30;;;0.30;;
41761;SDS011;27441;50.860;0.258;2023-04-19T06:48:32;16.33;;;11.35;;
41761;SDS011;27441;50.860;0.258;2023-04-19T06:50:58;1.10;;;1.00;;
41761;SDS011;27441;50.860;0.258;2023-04-19T07:00:43;0.25;;;0.25;;
41761;SDS011;27441;50.860;0.258;2023-04-19T07:03:09;7.65;;;6.95;;
41761;SDS011;27441;50.860;0.258;2023-04-19T07:49:23;2.60;;;2.50;;
41761;SDS011;27441;50.860;0.258;2023-04-19T08:40:36;1.85;;;1.75;;
41761;SDS011;27441;50.860;0.258;2023-04-19T10:13:17;1.40;;;1.30;;
